sensor_id;sensor_type;location;lat;lon;timestamp;pressure;altitude;pressure_sealevel;temperature;humidity
46379;BME280;32084;42.254;22.744;2023-07-13T00:02:15;95530.03;;;19.42;91.79
46379;BME280;32084;42.254;22.744;2023-07-13T00:04:41;95521.72;;;19.50;91.42
46379;BME280;32084;42.254;22.744;2023-07-13T00:07:08;95526.09;;;19.31;92.55
46379;BME280;32084;42.254;22.744;2023-07-13T00:09:34;95525.66;;;19.35;91.66
46379;BME280;32084;42.254;22.744;2023-07-13T00:12:00;95531.88;;;19.15;93.56
46379;BME280;32084;42.254;22.744;2023-07-13T00:14:27;95526.91;;;19.19;93.31
46379;BME280;32084;42.254;22.744;2023-07-13T00:16:54;95523.97;;;19.20;92.69
46379;BME280;32084;42.254;22.744;2023-07-13T00:19:20;95522.72;;;19.16;92.91
46379;BME280;32084;42.254;22.744;2023-07-13T00:21:46;95518.38;;;19.35;92.51
46379;BME280;32084;42.254;22.744;2023-07-13T00:24:14;95528.38;;;19.48;91.75
46379;BME280;32084;42.254;22.744;2023-07-13T00:26:41;95521.09;;;19.48;91.76
46379;BME280;32084;42.254;22.744;2023-07-13T00:29:10;95516.88;;;19.19;92.01
46379;BME280;32084;42.254;22.744;2023-07-13T00:31:36;95524.94;;;18.86;94.08
46379;BME280;32084;42.254;22.744;2023-07-13T00:34:03;95521.84;;;18.96;94.09
46379;BME280;32084;42.254;22.744;2023-07-13T00:36:29;95506.63;;;19.08;93.44
46379;BME280;32084;42.254;22.744;2023-07-13T00:38:55;95513.53;;;19.10;93.04
46379;BME280;32084;42.254;22.744;2023-07-13T00:41:21;95519.59;;;19.13;91.83
46379;BME280;32084;42.254;22.744;2023-07-13T00:43:47;95525.19;;;18.98;93.22
46379;BME280;32084;42.254;22.744;2023-07-13T00:48:42;95514.38;;;19.11;92.51
46379;BME280;32084;42.254;22.744;2023-07-13T00:51:10;95519.13;;;18.96;93.13
46379;BME280;32084;42.254;22.744;2023-07-13T00:53:36;95516.81;;;18.92;93.92
46379;BME280;32084;42.254;22.744;2023-07-13T00:56:02;95504.72;;;18.95;93.47
46379;BME280;32084;42.254;22.744;2023-07-13T00:58:28;95508.63;;;18.72;93.89
46379;BME280;32084;42.254;22.744;2023-07-13T01:00:55;95521.28;;;18.65;94.69
46379;BME280;32084;42.254;22.744;2023-07-13T01:03:21;95517.88;;;18.91;93.05
46379;BME280;32084;42.254;22.744;2023-07-13T01:05:48;95505.22;;;19.32;90.14
46379;BME280;32084;42.254;22.744;2023-07-13T01:08:15;95509.41;;;19.28;90.79
46379;BME280;32084;42.254;22.744;2023-07-13T01:10:50;95509.56;;;19.00;92.70
46379;BME280;32084;42.254;22.744;2023-07-13T01:13:16;95513.63;;;18.76;93.36
46379;BME280;32084;42.254;22.744;2023-07-13T01:15:43;95510.13;;;18.82;93.26
46379;BME280;32084;42.254;22.744;2023-07-13T01:18:17;95503.94;;;19.08;92.18
46379;BME280;32084;42.254;22.744;2023-07-13T01:21:17;95507.09;;;19.18;90.85
46379;BME280;32084;42.254;22.744;2023-07-13T01:23:36;95515.50;;;18.75;92.45
46379;BME280;32084;42.254;22.744;2023-07-13T01:26:02;95508.34;;;18.61;93.93
46379;BME280;32084;42.254;22.744;2023-07-13T01:28:28;95513.41;;;18.70;93.80
46379;BME280;32084;42.254;22.744;2023-07-13T01:30:55;95511.31;;;18.72;93.46
46379;BME280;32084;42.254;22.744;2023-07-13T01:33:21;95512.44;;;18.43;94.73
46379;BME280;32084;42.254;22.744;2023-07-13T01:35:48;95519.25;;;18.32;95.31
46379;BME280;32084;42.254;22.744;2023-07-13T01:38:14;95513.19;;;18.24;95.80
46379;BME280;32084;42.254;22.744;2023-07-13T01:40:41;95511.50;;;18.23;96.15
46379;BME280;32084;42.254;22.744;2023-07-13T01:43:07;95509.44;;;18.25;95.11
46379;BME280;32084;42.254;22.744;2023-07-13T01:45:33;95509.44;;;18.25;95.49
46379;BME280;32084;42.254;22.744;2023-07-13T01:47:59;95516.13;;;18.29;95.09
46379;BME280;32084;42.254;22.744;2023-07-13T01:50:26;95510.09;;;18.33;95.50
46379;BME280;32084;42.254;22.744;2023-07-13T01:52:52;95512.44;;;18.43;94.83
46379;BME280;32084;42.254;22.744;2023-07-13T01:55:19;95514.97;;;18.51;93.90
46379;BME280;32084;42.254;22.744;2023-07-13T01:57:46;95515.59;;;18.47;93.98
46379;BME280;32084;42.254;22.744;2023-07-13T02:00:12;95514.28;;;18.36;94.59
46379;BME280;32084;42.254;22.744;2023-07-13T02:02:38;95517.63;;;18.38;94.65
46379;BME280;32084;42.254;22.744;2023-07-13T02:05:04;95519.94;;;18.41;94.39
46379;BME280;32084;42.254;22.744;2023-07-13T02:07:31;95524.47;;;18.34;94.24
46379;BME280;32084;42.254;22.744;2023-07-13T02:09:57;95526.97;;;18.36;94.44
46379;BME280;32084;42.254;22.744;2023-07-13T02:12:23;95517.69;;;18.51;94.14
46379;BME280;32084;42.254;22.744;2023-07-13T02:14:49;95517.97;;;18.28;94.18
46379;BME280;32084;42.254;22.744;2023-07-13T02:17:15;95521.06;;;18.19;94.83
46379;BME280;32084;42.254;22.744;2023-07-13T02:19:41;95515.63;;;18.12;94.99
46379;BME280;32084;42.254;22.744;2023-07-13T02:22:07;95522.75;;;18.20;94.68
46379;BME280;32084;42.254;22.744;2023-07-13T02:24:33;95521.94;;;18.26;94.99
46379;BME280;32084;42.254;22.744;2023-07-13T02:27:00;95513.25;;;18.37;93.93
46379;BME280;32084;42.254;22.744;2023-07-13T02:29:26;95521.13;;;18.32;94.21
46379;BME280;32084;42.254;22.744;2023-07-13T02:31:52;95525.47;;;18.26;94.45
46379;BME280;32084;42.254;22.744;2023-07-13T02:34:18;95528.53;;;18.17;93.88
46379;BME280;32084;42.254;22.744;2023-07-13T02:36:44;95529.25;;;17.97;95.03
46379;BME280;32084;42.254;22.744;2023-07-13T02:39:11;95528.75;;;17.87;95.59
46379;BME280;32084;42.254;22.744;2023-07-13T02:41:37;95533.53;;;17.85;96.10
46379;BME280;32084;42.254;22.744;2023-07-13T02:44:03;95533.34;;;17.86;96.81
46379;BME280;32084;42.254;22.744;2023-07-13T02:46:30;95534.66;;;17.97;95.74
46379;BME280;32084;42.254;22.744;2023-07-13T02:48:56;95544.16;;;18.14;94.61
46379;BME280;32084;42.254;22.744;2023-07-13T02:51:22;95531.88;;;18.19;94.51
46379;BME280;32084;42.254;22.744;2023-07-13T02:53:48;95533.78;;;18.25;94.22
46379;BME280;32084;42.254;22.744;2023-07-13T02:56:14;95533.66;;;18.40;93.61
46379;BME280;32084;42.254;22.744;2023-07-13T02:58:40;95532.94;;;18.18;94.38
46379;BME280;32084;42.254;22.744;2023-07-13T03:01:10;95533.03;;;18.03;94.54
46379;BME280;32084;42.254;22.744;2023-07-13T03:03:37;95533.19;;;17.66;96.63
46379;BME280;32084;42.254;22.744;2023-07-13T03:06:04;95531.56;;;17.72;96.38
46379;BME280;32084;42.254;22.744;2023-07-13T03:08:31;95531.28;;;17.67;97.43
46379;BME280;32084;42.254;22.744;2023-07-13T03:11:01;95533.81;;;17.68;97.57
46379;BME280;32084;42.254;22.744;2023-07-13T03:13:27;95537.75;;;17.94;95.57
46379;BME280;32084;42.254;22.744;2023-07-13T03:15:53;95544.25;;;18.00;95.48
46379;BME280;32084;42.254;22.744;2023-07-13T03:18:19;95550.94;;;18.04;95.60
46379;BME280;32084;42.254;22.744;2023-07-13T03:20:45;95546.41;;;18.11;95.43
46379;BME280;32084;42.254;22.744;2023-07-13T03:23:11;95545.06;;;17.93;96.02
46379;BME280;32084;42.254;22.744;2023-07-13T03:25:38;95544.25;;;18.00;95.16
46379;BME280;32084;42.254;22.744;2023-07-13T03:28:04;95550.50;;;18.00;95.74
46379;BME280;32084;42.254;22.744;2023-07-13T03:30:31;95547.78;;;18.00;96.10
46379;BME280;32084;42.254;22.744;2023-07-13T03:32:57;95551.97;;;18.03;95.87
46379;BME280;32084;42.254;22.744;2023-07-13T03:35:23;95549.75;;;18.13;94.40
46379;BME280;32084;42.254;22.744;2023-07-13T03:37:49;95541.59;;;18.06;95.80
46379;BME280;32084;42.254;22.744;2023-07-13T03:40:15;95539.03;;;17.98;96.13
46379;BME280;32084;42.254;22.744;2023-07-13T03:42:41;95545.25;;;17.92;97.72
46379;BME280;32084;42.254;22.744;2023-07-13T03:45:07;95545.97;;;18.07;97.30
46379;BME280;32084;42.254;22.744;2023-07-13T03:47:33;95549.94;;;18.11;96.72
46379;BME280;32084;42.254;22.744;2023-07-13T03:49:59;95545.84;;;18.16;95.92
46379;BME280;32084;42.254;22.744;2023-07-13T03:52:25;95537.72;;;18.16;97.47
46379;BME280;32084;42.254;22.744;2023-07-13T03:54:51;95541.13;;;18.31;97.67
46379;BME280;32084;42.254;22.744;2023-07-13T03:57:18;95546.25;;;18.54;95.63
46379;BME280;32084;42.254;22.744;2023-07-13T03:59:44;95549.25;;;18.79;93.85
46379;BME280;32084;42.254;22.744;2023-07-13T04:02:10;95550.81;;;19.02;93.81
46379;BME280;32084;42.254;22.744;2023-07-13T04:04:36;95549.75;;;18.89;94.49
46379;BME280;32084;42.254;22.744;2023-07-13T04:07:02;95558.53;;;18.91;95.11
46379;BME280;32084;42.254;22.744;2023-07-13T04:09:28;95552.72;;;19.01;95.78
46379;BME280;32084;42.254;22.744;2023-07-13T04:11:54;95547.69;;;18.98;96.04
46379;BME280;32084;42.254;22.744;2023-07-13T04:14:20;95542.50;;;19.03;96.55
46379;BME280;32084;42.254;22.744;2023-07-13T04:16:46;95548.97;;;19.09;97.02
46379;BME280;32084;42.254;22.744;2023-07-13T04:19:12;95551.88;;;19.14;96.06
46379;BME280;32084;42.254;22.744;2023-07-13T04:21:38;95543.59;;;19.22;96.69
46379;BME280;32084;42.254;22.744;2023-07-13T04:24:05;95542.16;;;19.33;97.91
46379;BME280;32084;42.254;22.744;2023-07-13T04:26:31;95545.50;;;19.48;97.23
46379;BME280;32084;42.254;22.744;2023-07-13T04:28:57;95557.84;;;19.71;94.64
46379;BME280;32084;42.254;22.744;2023-07-13T04:31:23;95550.56;;;19.85;93.67
46379;BME280;32084;42.254;22.744;2023-07-13T04:33:49;95551.16;;;20.00;91.33
46379;BME280;32084;42.254;22.744;2023-07-13T04:36:16;95552.38;;;20.38;89.61
46379;BME280;32084;42.254;22.744;2023-07-13T04:38:42;95561.09;;;20.60;87.93
46379;BME280;32084;42.254;22.744;2023-07-13T04:41:09;95561.50;;;20.70;87.75
46379;BME280;32084;42.254;22.744;2023-07-13T04:43:35;95561.00;;;20.86;85.00
46379;BME280;32084;42.254;22.744;2023-07-13T04:46:04;95564.91;;;21.04;83.57
46379;BME280;32084;42.254;22.744;2023-07-13T04:48:31;95559.41;;;21.17;83.11
46379;BME280;32084;42.254;22.744;2023-07-13T04:50:57;95562.06;;;21.31;84.22
46379;BME280;32084;42.254;22.744;2023-07-13T04:53:24;95561.78;;;21.39;82.58
46379;BME280;32084;42.254;22.744;2023-07-13T04:55:50;95550.81;;;21.59;80.96
46379;BME280;32084;42.254;22.744;2023-07-13T04:58:16;95559.41;;;21.81;79.18
46379;BME280;32084;42.254;22.744;2023-07-13T05:00:43;95559.53;;;21.93;80.67
46379;BME280;32084;42.254;22.744;2023-07-13T05:03:09;95556.94;;;22.05;80.21
46379;BME280;32084;42.254;22.744;2023-07-13T05:05:35;95559.13;;;21.89;81.70
46379;BME280;32084;42.254;22.744;2023-07-13T05:08:01;95554.47;;;21.96;82.90
46379;BME280;32084;42.254;22.744;2023-07-13T05:10:27;95555.66;;;22.07;83.38
46379;BME280;32084;42.254;22.744;2023-07-13T05:12:53;95564.00;;;22.12;82.90
46379;BME280;32084;42.254;22.744;2023-07-13T05:15:22;95560.75;;;22.22;82.95
46379;BME280;32084;42.254;22.744;2023-07-13T05:17:49;95562.16;;;22.31;82.62
46379;BME280;32084;42.254;22.744;2023-07-13T05:20:15;95564.59;;;22.39;80.33
46379;BME280;32084;42.254;22.744;2023-07-13T05:22:42;95559.19;;;22.33;79.29
46379;BME280;32084;42.254;22.744;2023-07-13T05:25:09;95565.66;;;22.57;80.70
46379;BME280;32084;42.254;22.744;2023-07-13T05:27:35;95570.81;;;22.65;81.76
46379;BME280;32084;42.254;22.744;2023-07-13T05:30:02;95577.00;;;22.72;82.11
46379;BME280;32084;42.254;22.744;2023-07-13T05:32:29;95576.63;;;22.69;81.79
46379;BME280;32084;42.254;22.744;2023-07-13T05:34:55;95582.34;;;22.67;80.93
46379;BME280;32084;42.254;22.744;2023-07-13T05:37:21;95588.47;;;22.81;81.81
46379;BME280;32084;42.254;22.744;2023-07-13T05:39:47;95587.38;;;23.00;80.30
46379;BME280;32084;42.254;22.744;2023-07-13T05:42:13;95591.03;;;22.94;81.06
46379;BME280;32084;42.254;22.744;2023-07-13T05:44:39;95593.38;;;22.91;80.36
46379;BME280;32084;42.254;22.744;2023-07-13T05:47:05;95594.97;;;23.17;77.35
46379;BME280;32084;42.254;22.744;2023-07-13T05:49:31;95595.47;;;23.26;78.43
46379;BME280;32084;42.254;22.744;2023-07-13T05:51:57;95606.31;;;23.32;80.29
46379;BME280;32084;42.254;22.744;2023-07-13T05:54:23;95607.06;;;23.39;78.25
46379;BME280;32084;42.254;22.744;2023-07-13T05:56:49;95604.91;;;23.30;78.08
46379;BME280;32084;42.254;22.744;2023-07-13T05:59:15;95611.81;;;23.44;78.41
46379;BME280;32084;42.254;22.744;2023-07-13T06:01:41;95607.78;;;23.77;74.95
46379;BME280;32084;42.254;22.744;2023-07-13T06:04:07;95607.44;;;24.04;74.13
46379;BME280;32084;42.254;22.744;2023-07-13T06:06:33;95600.44;;;24.20;73.24
46379;BME280;32084;42.254;22.744;2023-07-13T06:08:59;95602.72;;;24.23;70.09
46379;BME280;32084;42.254;22.744;2023-07-13T06:11:26;95608.41;;;24.09;70.41
46379;BME280;32084;42.254;22.744;2023-07-13T06:13:53;95605.69;;;24.33;70.73
46379;BME280;32084;42.254;22.744;2023-07-13T06:16:19;95605.47;;;24.58;72.90
46379;BME280;32084;42.254;22.744;2023-07-13T06:18:46;95596.06;;;24.66;69.50
46379;BME280;32084;42.254;22.744;2023-07-13T06:21:13;95600.94;;;24.75;67.37
46379;BME280;32084;42.254;22.744;2023-07-13T06:23:39;95600.59;;;24.84;67.49
46379;BME280;32084;42.254;22.744;2023-07-13T06:26:06;95600.19;;;25.04;62.83
46379;BME280;32084;42.254;22.744;2023-07-13T06:28:32;95591.56;;;25.36;66.01
46379;BME280;32084;42.254;22.744;2023-07-13T06:30:58;95593.44;;;25.47;65.91
46379;BME280;32084;42.254;22.744;2023-07-13T06:33:25;95596.22;;;25.64;65.53
46379;BME280;32084;42.254;22.744;2023-07-13T06:35:51;95596.16;;;25.76;66.39
46379;BME280;32084;42.254;22.744;2023-07-13T06:38:17;95589.16;;;25.97;67.87
46379;BME280;32084;42.254;22.744;2023-07-13T06:40:43;95583.34;;;25.93;67.88
46379;BME280;32084;42.254;22.744;2023-07-13T06:43:09;95576.31;;;25.97;65.66
46379;BME280;32084;42.254;22.744;2023-07-13T06:45:45;95578.78;;;26.16;66.65
46379;BME280;32084;42.254;22.744;2023-07-13T06:48:13;95573.88;;;26.18;66.90
46379;BME280;32084;42.254;22.744;2023-07-13T06:50:39;95571.81;;;26.08;66.57
46379;BME280;32084;42.254;22.744;2023-07-13T06:53:05;95573.16;;;26.39;66.27
46379;BME280;32084;42.254;22.744;2023-07-13T06:55:31;95574.88;;;26.62;67.33
46379;BME280;32084;42.254;22.744;2023-07-13T06:57:57;95570.56;;;26.66;65.32
46379;BME280;32084;42.254;22.744;2023-07-13T07:00:23;95577.03;;;26.77;69.14
46379;BME280;32084;42.254;22.744;2023-07-13T07:02:49;95583.41;;;26.83;67.99
46379;BME280;32084;42.254;22.744;2023-07-13T07:05:15;95582.84;;;27.03;67.79
46379;BME280;32084;42.254;22.744;2023-07-13T07:07:41;95589.50;;;27.29;65.57
46379;BME280;32084;42.254;22.744;2023-07-13T07:10:07;95579.09;;;27.31;63.46
46379;BME280;32084;42.254;22.744;2023-07-13T07:12:33;95588.03;;;27.21;63.70
46379;BME280;32084;42.254;22.744;2023-07-13T07:14:59;95577.84;;;27.22;60.98
46379;BME280;32084;42.254;22.744;2023-07-13T07:17:25;95577.81;;;27.17;61.06
46379;BME280;32084;42.254;22.744;2023-07-13T07:19:52;95559.81;;;27.26;61.14
46379;BME280;32084;42.254;22.744;2023-07-13T07:22:20;95557.97;;;27.32;58.03
46379;BME280;32084;42.254;22.744;2023-07-13T07:24:46;95563.38;;;27.49;58.15
46379;BME280;32084;42.254;22.744;2023-07-13T07:27:12;95563.53;;;27.64;59.93
46379;BME280;32084;42.254;22.744;2023-07-13T07:29:38;95561.16;;;27.73;60.87
46379;BME280;32084;42.254;22.744;2023-07-13T07:32:04;95557.34;;;28.01;57.97
46379;BME280;32084;42.254;22.744;2023-07-13T07:34:30;95560.56;;;28.25;60.26
46379;BME280;32084;42.254;22.744;2023-07-13T07:36:59;95562.44;;;28.19;62.53
46379;BME280;32084;42.254;22.744;2023-07-13T07:39:25;95554.75;;;28.21;61.42
46379;BME280;32084;42.254;22.744;2023-07-13T07:41:51;95550.22;;;28.05;60.63
46379;BME280;32084;42.254;22.744;2023-07-13T07:44:17;95545.97;;;28.24;61.42
46379;BME280;32084;42.254;22.744;2023-07-13T07:46:43;95543.13;;;28.47;59.25
46379;BME280;32084;42.254;22.744;2023-07-13T07:49:09;95541.03;;;28.64;60.80
46379;BME280;32084;42.254;22.744;2023-07-13T07:51:36;95543.91;;;28.85;62.15
46379;BME280;32084;42.254;22.744;2023-07-13T07:54:03;95541.97;;;28.80;60.08
46379;BME280;32084;42.254;22.744;2023-07-13T07:56:28;95538.72;;;28.88;62.16
46379;BME280;32084;42.254;22.744;2023-07-13T07:58:54;95536.25;;;28.92;60.05
46379;BME280;32084;42.254;22.744;2023-07-13T08:01:21;95536.28;;;29.02;61.26
46379;BME280;32084;42.254;22.744;2023-07-13T08:03:47;95541.00;;;29.12;58.11
46379;BME280;32084;42.254;22.744;2023-07-13T08:06:13;95532.19;;;29.10;60.34
46379;BME280;32084;42.254;22.744;2023-07-13T08:08:39;95540.94;;;28.96;59.89
46379;BME280;32084;42.254;22.744;2023-07-13T08:11:06;95530.56;;;29.09;61.19
46379;BME280;32084;42.254;22.744;2023-07-13T08:13:33;95526.81;;;29.35;61.13
46379;BME280;32084;42.254;22.744;2023-07-13T08:15:59;95529.59;;;29.46;60.49
46379;BME280;32084;42.254;22.744;2023-07-13T08:18:25;95526.03;;;29.55;59.02
46379;BME280;32084;42.254;22.744;2023-07-13T08:20:51;95534.66;;;29.80;59.60
46379;BME280;32084;42.254;22.744;2023-07-13T08:23:17;95527.50;;;29.89;57.57
46379;BME280;32084;42.254;22.744;2023-07-13T08:25:50;95522.00;;;29.78;58.69
46379;BME280;32084;42.254;22.744;2023-07-13T08:28:16;95515.91;;;29.82;58.38
46379;BME280;32084;42.254;22.744;2023-07-13T08:33:41;95513.72;;;30.09;58.14
46379;BME280;32084;42.254;22.744;2023-07-13T08:36:08;95507.38;;;30.04;57.33
46379;BME280;32084;42.254;22.744;2023-07-13T08:38:34;95510.41;;;30.23;56.68
46379;BME280;32084;42.254;22.744;2023-07-13T08:41:03;95509.31;;;30.34;55.62
46379;BME280;32084;42.254;22.744;2023-07-13T08:43:35;95509.06;;;30.35;55.32
46379;BME280;32084;42.254;22.744;2023-07-13T08:51:20;95498.53;;;30.43;56.50
46379;BME280;32084;42.254;22.744;2023-07-13T08:53:43;95503.22;;;30.52;56.97
46379;BME280;32084;42.254;22.744;2023-07-13T08:56:17;95494.41;;;30.40;57.06
46379;BME280;32084;42.254;22.744;2023-07-13T08:58:44;95489.16;;;30.39;54.27
46379;BME280;32084;42.254;22.744;2023-07-13T09:01:17;95490.81;;;30.60;55.37
46379;BME280;32084;42.254;22.744;2023-07-13T09:06:16;95490.47;;;30.72;56.92
46379;BME280;32084;42.254;22.744;2023-07-13T09:08:48;95486.34;;;30.69;54.74
46379;BME280;32084;42.254;22.744;2023-07-13T09:16:19;95471.66;;;30.94;56.90
46379;BME280;32084;42.254;22.744;2023-07-13T09:18:49;95464.47;;;30.93;56.49
46379;BME280;32084;42.254;22.744;2023-07-13T09:21:27;95464.72;;;31.02;57.08
46379;BME280;32084;42.254;22.744;2023-07-13T09:23:59;95462.44;;;31.14;57.06
46379;BME280;32084;42.254;22.744;2023-07-13T09:26:27;95460.19;;;31.22;57.91
46379;BME280;32084;42.254;22.744;2023-07-13T09:28:56;95471.78;;;31.29;56.20
46379;BME280;32084;42.254;22.744;2023-07-13T09:31:24;95467.59;;;31.31;56.02
46379;BME280;32084;42.254;22.744;2023-07-13T09:33:52;95479.78;;;31.30;57.39
46379;BME280;32084;42.254;22.744;2023-07-13T09:36:39;95477.81;;;31.36;57.55
46379;BME280;32084;42.254;22.744;2023-07-13T09:41:41;95464.78;;;31.42;55.63
46379;BME280;32084;42.254;22.744;2023-07-13T09:44:10;95467.03;;;31.35;57.33
46379;BME280;32084;42.254;22.744;2023-07-13T09:46:38;95483.72;;;31.64;57.03
46379;BME280;32084;42.254;22.744;2023-07-13T09:49:04;95487.00;;;31.71;55.05
46379;BME280;32084;42.254;22.744;2023-07-13T09:51:30;95478.38;;;31.78;55.98
46379;BME280;32084;42.254;22.744;2023-07-13T09:53:56;95477.25;;;31.84;56.27
46379;BME280;32084;42.254;22.744;2023-07-13T09:56:24;95475.59;;;31.78;54.03
46379;BME280;32084;42.254;22.744;2023-07-13T09:58:52;95472.00;;;31.82;56.96
46379;BME280;32084;42.254;22.744;2023-07-13T10:01:30;95474.66;;;31.92;56.02
46379;BME280;32084;42.254;22.744;2023-07-13T10:03:57;95470.78;;;31.94;57.14
46379;BME280;32084;42.254;22.744;2023-07-13T10:06:23;95463.34;;;31.89;56.96
46379;BME280;32084;42.254;22.744;2023-07-13T10:08:55;95459.47;;;31.95;54.91
46379;BME280;32084;42.254;22.744;2023-07-13T10:11:28;95453.72;;;31.86;58.13
46379;BME280;32084;42.254;22.744;2023-07-13T10:16:25;95452.69;;;32.12;57.21
46379;BME280;32084;42.254;22.744;2023-07-13T10:18:57;95447.69;;;32.14;58.40
46379;BME280;32084;42.254;22.744;2023-07-13T10:21:26;95445.41;;;32.21;57.03
46379;BME280;32084;42.254;22.744;2023-07-13T10:23:55;95433.56;;;32.44;58.55
46379;BME280;32084;42.254;22.744;2023-07-13T10:26:25;95435.06;;;32.61;58.20
46379;BME280;32084;42.254;22.744;2023-07-13T10:28:53;95435.19;;;32.75;58.55
46379;BME280;32084;42.254;22.744;2023-07-13T10:31:21;95423.88;;;32.71;56.27
46379;BME280;32084;42.254;22.744;2023-07-13T10:33:47;95428.03;;;32.93;54.36
46379;BME280;32084;42.254;22.744;2023-07-13T10:36:56;95419.56;;;33.03;53.69
46379;BME280;32084;42.254;22.744;2023-07-13T10:39:04;95407.38;;;33.04;52.88
46379;BME280;32084;42.254;22.744;2023-07-13T10:41:31;95402.97;;;33.03;53.92
46379;BME280;32084;42.254;22.744;2023-07-13T10:43:58;95402.13;;;33.02;55.91
46379;BME280;32084;42.254;22.744;2023-07-13T10:46:25;95401.72;;;33.14;57.17
46379;BME280;32084;42.254;22.744;2023-07-13T10:48:59;95401.06;;;33.22;56.53
46379;BME280;32084;42.254;22.744;2023-07-13T10:51:27;95388.09;;;33.18;53.69
46379;BME280;32084;42.254;22.744;2023-07-13T10:56:35;95390.00;;;33.22;53.26
46379;BME280;32084;42.254;22.744;2023-07-13T10:59:09;95383.84;;;33.25;53.24
46379;BME280;32084;42.254;22.744;2023-07-13T11:01:40;95386.19;;;33.37;54.47
46379;BME280;32084;42.254;22.744;2023-07-13T11:04:08;95392.75;;;33.41;53.04
46379;BME280;32084;42.254;22.744;2023-07-13T11:06:39;95389.81;;;33.33;53.20
46379;BME280;32084;42.254;22.744;2023-07-13T11:09:48;95387.00;;;33.38;50.62
46379;BME280;32084;42.254;22.744;2023-07-13T11:15:26;95386.59;;;33.63;49.82
46379;BME280;32084;42.254;22.744;2023-07-13T11:19:54;95368.50;;;33.85;50.07
46379;BME280;32084;42.254;22.744;2023-07-13T11:22:41;95369.03;;;33.87;47.56
46379;BME280;32084;42.254;22.744;2023-07-13T11:25:42;95366.69;;;33.94;48.28
46379;BME280;32084;42.254;22.744;2023-07-13T11:28:12;95364.66;;;34.00;47.09
46379;BME280;32084;42.254;22.744;2023-07-13T11:30:44;95358.00;;;33.82;49.16
46379;BME280;32084;42.254;22.744;2023-07-13T11:33:14;95353.19;;;33.88;48.23
46379;BME280;32084;42.254;22.744;2023-07-13T11:36:00;95349.63;;;34.01;47.80
46379;BME280;32084;42.254;22.744;2023-07-13T11:41:03;95333.63;;;33.98;46.01
46379;BME280;32084;42.254;22.744;2023-07-13T11:43:30;95330.84;;;33.98;49.27
46379;BME280;32084;42.254;22.744;2023-07-13T11:45:56;95321.47;;;33.94;48.03
46379;BME280;32084;42.254;22.744;2023-07-13T11:48:28;95321.38;;;33.99;49.00
46379;BME280;32084;42.254;22.744;2023-07-13T11:50:58;95317.88;;;34.07;44.64
46379;BME280;32084;42.254;22.744;2023-07-13T11:53:27;95316.28;;;34.20;48.47
46379;BME280;32084;42.254;22.744;2023-07-13T11:55:54;95320.22;;;34.19;42.95
46379;BME280;32084;42.254;22.744;2023-07-13T11:58:21;95310.56;;;34.30;44.70
46379;BME280;32084;42.254;22.744;2023-07-13T12:00:49;95313.72;;;34.37;40.20
46379;BME280;32084;42.254;22.744;2023-07-13T12:03:18;95316.41;;;34.42;40.51
46379;BME280;32084;42.254;22.744;2023-07-13T12:05:55;95328.53;;;34.60;35.93
46379;BME280;32084;42.254;22.744;2023-07-13T12:08:23;95317.59;;;34.64;37.77
46379;BME280;32084;42.254;22.744;2023-07-13T12:10:55;95312.78;;;34.70;37.13
46379;BME280;32084;42.254;22.744;2023-07-13T12:13:21;95315.47;;;34.75;36.83
46379;BME280;32084;42.254;22.744;2023-07-13T12:15:47;95316.47;;;34.79;37.07
46379;BME280;32084;42.254;22.744;2023-07-13T12:18:28;95303.22;;;34.76;37.97
46379;BME280;32084;42.254;22.744;2023-07-13T12:20:55;95298.00;;;34.74;39.79
46379;BME280;32084;42.254;22.744;2023-07-13T12:23:25;95298.19;;;34.50;38.36
46379;BME280;32084;42.254;22.744;2023-07-13T12:25:52;95295.63;;;34.54;38.27
46379;BME280;32084;42.254;22.744;2023-07-13T12:28:37;95301.88;;;34.73;37.61
46379;BME280;32084;42.254;22.744;2023-07-13T12:31:05;95297.84;;;34.93;36.91
46379;BME280;32084;42.254;22.744;2023-07-13T12:33:32;95302.84;;;35.05;36.39
46379;BME280;32084;42.254;22.744;2023-07-13T12:36:03;95289.53;;;35.16;35.84
46379;BME280;32084;42.254;22.744;2023-07-13T12:38:30;95291.56;;;35.24;36.88
46379;BME280;32084;42.254;22.744;2023-07-13T12:40:57;95292.63;;;35.14;35.73
46379;BME280;32084;42.254;22.744;2023-07-13T12:43:23;95285.16;;;35.01;36.83
46379;BME280;32084;42.254;22.744;2023-07-13T12:46:01;95290.91;;;35.05;35.22
46379;BME280;32084;42.254;22.744;2023-07-13T12:48:27;95289.19;;;34.95;35.94
46379;BME280;32084;42.254;22.744;2023-07-13T12:50:54;95283.13;;;34.93;35.39
46379;BME280;32084;42.254;22.744;2023-07-13T12:53:23;95278.50;;;34.88;36.40
46379;BME280;32084;42.254;22.744;2023-07-13T12:55:51;95269.78;;;34.81;36.83
46379;BME280;32084;42.254;22.744;2023-07-13T12:58:24;95270.88;;;34.94;36.69
46379;BME280;32084;42.254;22.744;2023-07-13T13:00:51;95269.94;;;34.98;36.32
46379;BME280;32084;42.254;22.744;2023-07-13T13:03:38;95267.41;;;34.88;37.84
46379;BME280;32084;42.254;22.744;2023-07-13T13:06:06;95262.16;;;34.87;37.95
46379;BME280;32084;42.254;22.744;2023-07-13T13:08:33;95262.66;;;34.89;37.00
46379;BME280;32084;42.254;22.744;2023-07-13T13:11:00;95255.47;;;34.88;38.21
46379;BME280;32084;42.254;22.744;2023-07-13T13:13:26;95249.53;;;34.80;38.47
46379;BME280;32084;42.254;22.744;2023-07-13T13:15:52;95255.03;;;34.94;36.96
46379;BME280;32084;42.254;22.744;2023-07-13T13:18:19;95253.97;;;35.04;37.03
46379;BME280;32084;42.254;22.744;2023-07-13T13:20:46;95256.19;;;35.16;37.07
46379;BME280;32084;42.254;22.744;2023-07-13T13:23:13;95256.41;;;35.19;36.68
46379;BME280;32084;42.254;22.744;2023-07-13T13:25:40;95246.63;;;35.22;36.45
46379;BME280;32084;42.254;22.744;2023-07-13T13:28:11;95244.47;;;35.19;36.88